Woodgate — D5BX7 — position and weather

sailwx.info

Track history (hours):
 
Tides and Currents Weather Stations Pressure Air Temp Water Temp Dewpoint Dewpoint Depression Visibility Wind Speed Wind Dir Waves Ship Positions

Woodgate

Last reported at 2015-Jul-27 15:26 UTC. Time now 2015-Jul-29 00:41 UTC.
Position N 03°09' E 100°39'.

Length 169 m; draft 9.9 m.

Type: Cargo ship. MMSI: 636015627.

Date/timePositionNaut miles runAvg speedWind from/ knotsBaromVisibWave heightAir tempDewpointWater temp
2015-Jul-27 15:26N 03°09' E 100°39'2412.7
2015-Jul-27 13:33N 02°53' E 100°57'2412.2
2015-Jul-27 11:33N 02°41' E 101°18'9 9.1
2015-Jul-27 10:33N 02°37' E 101°26'1611.5
2015-Jul-27 09:08N 02°27' E 101°39'14911.6
2015-Jul-26 20:20N 01°10' E 103°47'8 9.7
2015-Jul-26 19:33N 01°13' E 103°53'4 3.7
2015-Jul-26 18:33N 01°16' E 103°55'0 0.2
2015-Jul-26 17:29N 01°16' E 103°54'0 0.0
2015-Jul-26 16:32N 01°16' E 103°54'0 0.1
2015-Jul-26 15:29N 01°16' E 103°54'0 0.0
2015-Jul-26 14:29N 01°16' E 103°54'0 0.0
2015-Jul-26 13:29N 01°16' E 103°54'0 0.1
2015-Jul-26 12:23N 01°16' E 103°54'0 0.1
2015-Jul-26 11:29N 01°16' E 103°54'0 0.0
2015-Jul-26 10:29N 01°16' E 103°54'0 0.0
2015-Jul-26 09:32N 01°16' E 103°54'0 0.0
2015-Jul-26 08:32N 01°16' E 103°54'0 0.0
2015-Jul-26 07:29N 01°16' E 103°54'0 0.0
2015-Jul-26 06:29N 01°16' E 103°54'0 0.0
2015-Jul-26 05:32N 01°16' E 103°54'0 0.0
2015-Jul-26 04:29N 01°16' E 103°54'0 0.0
2015-Jul-26 03:29N 01°16' E 103°54'1 1.2
2015-Jul-26 02:33N 01°16' E 103°55'5 5.2
2015-Jul-26 01:33N 01°16' E 104°00'  
2015-Jul-19 18:14N 22°25' E 119°50'5 6.8
2015-Jul-19 17:32N 22°29' E 119°54'7 6.9
2015-Jul-19 16:33N 22°35' E 119°54'6 5.9
2015-Jul-19 15:32N 22°41' E 119°54'6 5.7
2015-Jul-19 14:31N 22°47' E 119°54'  
Track history (hours):
 
Tides and Currents Weather Stations Pressure Air Temp Water Temp Dewpoint Dewpoint Depression Visibility Wind Speed Wind Dir Waves Ship Positions

Woodgate

Last reported at 2015-Jul-27 15:26 UTC. Time now 2015-Jul-29 00:41 UTC.
Position N 03°09' E 100°39'.

Length 169 m; draft 9.9 m.

Type: Cargo ship. MMSI: 636015627.

Date/timePositionNaut miles runAvg speedWind from/ knotsBaromVisibWave heightAir tempDewpointWater temp
2015-Jul-27 15:26N 03°09' E 100°39'2412.7
2015-Jul-27 13:33N 02°53' E 100°57'2412.2
2015-Jul-27 11:33N 02°41' E 101°18'9 9.1
2015-Jul-27 10:33N 02°37' E 101°26'1611.5
2015-Jul-27 09:08N 02°27' E 101°39'14911.6
2015-Jul-26 20:20N 01°10' E 103°47'8 9.7
2015-Jul-26 19:33N 01°13' E 103°53'4 3.7
2015-Jul-26 18:33N 01°16' E 103°55'0 0.2
2015-Jul-26 17:29N 01°16' E 103°54'0 0.0
2015-Jul-26 16:32N 01°16' E 103°54'0 0.1
2015-Jul-26 15:29N 01°16' E 103°54'0 0.0
2015-Jul-26 14:29N 01°16' E 103°54'0 0.0
2015-Jul-26 13:29N 01°16' E 103°54'0 0.1
2015-Jul-26 12:23N 01°16' E 103°54'0 0.1
2015-Jul-26 11:29N 01°16' E 103°54'0 0.0
2015-Jul-26 10:29N 01°16' E 103°54'0 0.0
2015-Jul-26 09:32N 01°16' E 103°54'0 0.0
2015-Jul-26 08:32N 01°16' E 103°54'0 0.0
2015-Jul-26 07:29N 01°16' E 103°54'0 0.0
2015-Jul-26 06:29N 01°16' E 103°54'0 0.0
2015-Jul-26 05:32N 01°16' E 103°54'0 0.0
2015-Jul-26 04:29N 01°16' E 103°54'0 0.0
2015-Jul-26 03:29N 01°16' E 103°54'1 1.2
2015-Jul-26 02:33N 01°16' E 103°55'5 5.2
2015-Jul-26 01:33N 01°16' E 104°00'  
2015-Jul-19 18:14N 22°25' E 119°50'5 6.8
2015-Jul-19 17:32N 22°29' E 119°54'7 6.9
2015-Jul-19 16:33N 22°35' E 119°54'6 5.9
2015-Jul-19 15:32N 22°41' E 119°54'6 5.7
2015-Jul-19 14:31N 22°47' E 119°54'  

Dump ship's entire track history